Kahneeta, Oregon
Current Conditions -  °F | °C
As of 12:56 AM on Friday 31 Oct 2014 (Local Time) from KRDM Reporting Station
Haze Haze  
Wind Chill: 47°   Ceiling: 6000
Heat Index: 47°   Visibility: 5mi
Dew Point: 47°   Wind: 3mph
Humidity: 100%   Direction: 170°S
Pressure: 29.8"   Gusts: NA
Location:  44.7239°N, 121.498°W
Report Text: KRDM 310756Z AUTO 17003KT 5SM BR BKN060 08/08 A2980 RMK AO2 SLP083 T00830083 401830072
Loading
Personal Weather Stations






























Interactive Weather Map
Tropical Storm Tracking
New forecast layout! Learn more

10-Day Weather Forecast

Advertisements
Track Severe Weather on mobile